sensor_id;sensor_type;location;lat;lon;timestamp;P1;durP1;ratioP1;P2;durP2;ratioP2
32705;SDS011;19094;50.972;3.538;2023-05-29T00:00:15;26.27;;;7.68;;
32705;SDS011;19094;50.972;3.538;2023-05-29T00:02:44;20.20;;;8.65;;
32705;SDS011;19094;50.972;3.538;2023-05-29T00:05:13;23.98;;;8.18;;
32705;SDS011;19094;50.972;3.538;2023-05-29T00:07:39;22.15;;;8.90;;
32705;SDS011;19094;50.972;3.538;2023-05-29T00:10:06;22.08;;;9.73;;
32705;SDS011;19094;50.972;3.538;2023-05-29T00:12:33;21.38;;;8.35;;
32705;SDS011;19094;50.972;3.538;2023-05-29T00:14:59;22.50;;;8.68;;
32705;SDS011;19094;50.972;3.538;2023-05-29T00:17:25;24.30;;;8.35;;
32705;SDS011;19094;50.972;3.538;2023-05-29T00:19:51;19.40;;;8.35;;
32705;SDS011;19094;50.972;3.538;2023-05-29T00:22:17;13.82;;;6.30;;
32705;SDS011;19094;50.972;3.538;2023-05-29T00:24:42;18.67;;;6.65;;
32705;SDS011;19094;50.972;3.538;2023-05-29T00:27:08;18.27;;;6.55;;
32705;SDS011;19094;50.972;3.538;2023-05-29T00:29:35;19.30;;;7.38;;
32705;SDS011;19094;50.972;3.538;2023-05-29T00:32:06;18.95;;;7.07;;
32705;SDS011;19094;50.972;3.538;2023-05-29T00:34:32;21.23;;;6.40;;
32705;SDS011;19094;50.972;3.538;2023-05-29T00:36:58;15.50;;;5.97;;
32705;SDS011;19094;50.972;3.538;2023-05-29T00:39:24;21.25;;;5.90;;
32705;SDS011;19094;50.972;3.538;2023-05-29T00:41:49;15.73;;;6.47;;
32705;SDS011;19094;50.972;3.538;2023-05-29T00:44:17;15.80;;;6.22;;
32705;SDS011;19094;50.972;3.538;2023-05-29T00:46:44;17.30;;;6.65;;
32705;SDS011;19094;50.972;3.538;2023-05-29T00:49:14;21.13;;;7.18;;
32705;SDS011;19094;50.972;3.538;2023-05-29T00:51:42;14.43;;;5.90;;
32705;SDS011;19094;50.972;3.538;2023-05-29T00:54:11;20.35;;;6.72;;
32705;SDS011;19094;50.972;3.538;2023-05-29T00:56:39;24.17;;;6.45;;
32705;SDS011;19094;50.972;3.538;2023-05-29T00:59:09;23.23;;;6.18;;
32705;SDS011;19094;50.972;3.538;2023-05-29T01:01:35;17.85;;;6.05;;
32705;SDS011;19094;50.972;3.538;2023-05-29T01:04:01;13.77;;;5.30;;
32705;SDS011;19094;50.972;3.538;2023-05-29T01:06:31;21.75;;;6.55;;
32705;SDS011;19094;50.972;3.538;2023-05-29T01:08:57;15.63;;;5.60;;
32705;SDS011;19094;50.972;3.538;2023-05-29T01:13:49;19.55;;;5.65;;
32705;SDS011;19094;50.972;3.538;2023-05-29T01:18:54;13.15;;;5.07;;
32705;SDS011;19094;50.972;3.538;2023-05-29T01:21:29;18.83;;;5.55;;
32705;SDS011;19094;50.972;3.538;2023-05-29T01:24:21;17.60;;;4.85;;
32705;SDS011;19094;50.972;3.538;2023-05-29T01:26:58;23.20;;;5.40;;
32705;SDS011;19094;50.972;3.538;2023-05-29T01:29:26;11.43;;;4.38;;
32705;SDS011;19094;50.972;3.538;2023-05-29T01:31:56;16.80;;;5.03;;
32705;SDS011;19094;50.972;3.538;2023-05-29T01:34:23;18.92;;;4.88;;
32705;SDS011;19094;50.972;3.538;2023-05-29T01:36:49;14.10;;;4.13;;
32705;SDS011;19094;50.972;3.538;2023-05-29T01:39:15;24.17;;;5.75;;
32705;SDS011;19094;50.972;3.538;2023-05-29T01:41:42;15.27;;;4.25;;
32705;SDS011;19094;50.972;3.538;2023-05-29T01:44:10;20.88;;;4.80;;
32705;SDS011;19094;50.972;3.538;2023-05-29T01:46:37;17.42;;;5.35;;
32705;SDS011;19094;50.972;3.538;2023-05-29T01:49:04;15.80;;;3.75;;
32705;SDS011;19094;50.972;3.538;2023-05-29T01:51:30;17.13;;;3.90;;
32705;SDS011;19094;50.972;3.538;2023-05-29T01:53:57;19.17;;;3.92;;
32705;SDS011;19094;50.972;3.538;2023-05-29T01:56:25;15.15;;;3.50;;
32705;SDS011;19094;50.972;3.538;2023-05-29T01:58:52;15.45;;;3.75;;
32705;SDS011;19094;50.972;3.538;2023-05-29T02:01:21;17.52;;;3.30;;
32705;SDS011;19094;50.972;3.538;2023-05-29T02:03:47;17.25;;;4.38;;
32705;SDS011;19094;50.972;3.538;2023-05-29T02:06:13;16.85;;;3.58;;
32705;SDS011;19094;50.972;3.538;2023-05-29T02:08:39;18.98;;;4.15;;
32705;SDS011;19094;50.972;3.538;2023-05-29T02:11:05;21.65;;;4.03;;
32705;SDS011;19094;50.972;3.538;2023-05-29T02:13:31;13.63;;;3.70;;
32705;SDS011;19094;50.972;3.538;2023-05-29T02:15:56;20.80;;;3.58;;
32705;SDS011;19094;50.972;3.538;2023-05-29T02:18:22;13.05;;;3.33;;
32705;SDS011;19094;50.972;3.538;2023-05-29T02:20:48;14.65;;;4.00;;
32705;SDS011;19094;50.972;3.538;2023-05-29T02:23:14;12.43;;;3.13;;
32705;SDS011;19094;50.972;3.538;2023-05-29T02:25:40;13.38;;;3.33;;
32705;SDS011;19094;50.972;3.538;2023-05-29T02:28:06;14.32;;;3.65;;
32705;SDS011;19094;50.972;3.538;2023-05-29T02:30:32;17.33;;;3.25;;
32705;SDS011;19094;50.972;3.538;2023-05-29T02:32:58;13.55;;;3.25;;
32705;SDS011;19094;50.972;3.538;2023-05-29T02:35:23;12.85;;;3.17;;
32705;SDS011;19094;50.972;3.538;2023-05-29T02:37:49;12.98;;;3.33;;
32705;SDS011;19094;50.972;3.538;2023-05-29T02:40:15;14.27;;;2.67;;
32705;SDS011;19094;50.972;3.538;2023-05-29T02:42:42;14.07;;;3.10;;
32705;SDS011;19094;50.972;3.538;2023-05-29T02:45:08;20.85;;;4.18;;
32705;SDS011;19094;50.972;3.538;2023-05-29T02:47:34;11.15;;;2.80;;
32705;SDS011;19094;50.972;3.538;2023-05-29T02:50:00;13.90;;;2.80;;
32705;SDS011;19094;50.972;3.538;2023-05-29T02:52:26;10.23;;;2.70;;
32705;SDS011;19094;50.972;3.538;2023-05-29T02:54:52;19.40;;;3.47;;
32705;SDS011;19094;50.972;3.538;2023-05-29T02:57:19;13.43;;;2.80;;
32705;SDS011;19094;50.972;3.538;2023-05-29T02:59:45;17.85;;;3.20;;
32705;SDS011;19094;50.972;3.538;2023-05-29T03:02:11;10.80;;;3.45;;
32705;SDS011;19094;50.972;3.538;2023-05-29T03:04:37;14.20;;;3.30;;
32705;SDS011;19094;50.972;3.538;2023-05-29T03:07:03;13.38;;;3.08;;
32705;SDS011;19094;50.972;3.538;2023-05-29T03:09:28;13.98;;;2.83;;
32705;SDS011;19094;50.972;3.538;2023-05-29T03:11:54;14.50;;;3.53;;
32705;SDS011;19094;50.972;3.538;2023-05-29T03:14:20;11.35;;;2.95;;
32705;SDS011;19094;50.972;3.538;2023-05-29T03:16:46;11.27;;;3.28;;
32705;SDS011;19094;50.972;3.538;2023-05-29T03:19:12;14.68;;;2.85;;
32705;SDS011;19094;50.972;3.538;2023-05-29T03:21:38;17.38;;;3.40;;
32705;SDS011;19094;50.972;3.538;2023-05-29T03:24:04;25.50;;;4.22;;
32705;SDS011;19094;50.972;3.538;2023-05-29T03:26:30;11.88;;;3.10;;
32705;SDS011;19094;50.972;3.538;2023-05-29T03:28:56;11.02;;;3.17;;
32705;SDS011;19094;50.972;3.538;2023-05-29T03:31:21;12.60;;;2.67;;
32705;SDS011;19094;50.972;3.538;2023-05-29T03:33:48;11.63;;;2.85;;
32705;SDS011;19094;50.972;3.538;2023-05-29T03:36:14;20.60;;;3.65;;
32705;SDS011;19094;50.972;3.538;2023-05-29T03:38:42;20.38;;;3.92;;
32705;SDS011;19094;50.972;3.538;2023-05-29T03:41:08;19.52;;;4.45;;
32705;SDS011;19094;50.972;3.538;2023-05-29T03:43:33;17.58;;;3.47;;
32705;SDS011;19094;50.972;3.538;2023-05-29T03:45:59;15.05;;;3.45;;
32705;SDS011;19094;50.972;3.538;2023-05-29T03:48:25;17.02;;;3.75;;
32705;SDS011;19094;50.972;3.538;2023-05-29T03:50:50;15.82;;;3.00;;
32705;SDS011;19094;50.972;3.538;2023-05-29T03:53:16;11.02;;;2.20;;
32705;SDS011;19094;50.972;3.538;2023-05-29T03:55:42;16.98;;;3.80;;
32705;SDS011;19094;50.972;3.538;2023-05-29T03:58:07;18.42;;;3.05;;
32705;SDS011;19094;50.972;3.538;2023-05-29T04:00:33;16.60;;;3.15;;
32705;SDS011;19094;50.972;3.538;2023-05-29T04:02:59;18.90;;;3.33;;
32705;SDS011;19094;50.972;3.538;2023-05-29T04:05:24;10.07;;;2.90;;
32705;SDS011;19094;50.972;3.538;2023-05-29T04:07:51;14.10;;;3.08;;
32705;SDS011;19094;50.972;3.538;2023-05-29T04:10:17;20.35;;;3.95;;
32705;SDS011;19094;50.972;3.538;2023-05-29T04:12:42;15.02;;;3.05;;
32705;SDS011;19094;50.972;3.538;2023-05-29T04:15:08;20.85;;;3.25;;
32705;SDS011;19094;50.972;3.538;2023-05-29T04:17:34;15.32;;;3.70;;
32705;SDS011;19094;50.972;3.538;2023-05-29T04:20:00;9.40;;;3.25;;
32705;SDS011;19094;50.972;3.538;2023-05-29T04:22:31;12.70;;;3.05;;
32705;SDS011;19094;50.972;3.538;2023-05-29T04:24:57;13.10;;;3.45;;
32705;SDS011;19094;50.972;3.538;2023-05-29T04:27:22;17.40;;;3.05;;
32705;SDS011;19094;50.972;3.538;2023-05-29T04:29:48;18.70;;;3.40;;
32705;SDS011;19094;50.972;3.538;2023-05-29T04:32:14;19.58;;;3.13;;
32705;SDS011;19094;50.972;3.538;2023-05-29T04:34:40;14.88;;;3.30;;
32705;SDS011;19094;50.972;3.538;2023-05-29T04:37:09;19.33;;;2.78;;
32705;SDS011;19094;50.972;3.538;2023-05-29T04:39:34;18.60;;;3.53;;
32705;SDS011;19094;50.972;3.538;2023-05-29T04:42:00;13.40;;;2.72;;
32705;SDS011;19094;50.972;3.538;2023-05-29T04:44:26;17.58;;;3.53;;
32705;SDS011;19094;50.972;3.538;2023-05-29T04:46:52;20.50;;;3.38;;
32705;SDS011;19094;50.972;3.538;2023-05-29T04:49:18;12.50;;;2.45;;
32705;SDS011;19094;50.972;3.538;2023-05-29T04:51:45;15.98;;;2.63;;
32705;SDS011;19094;50.972;3.538;2023-05-29T04:54:11;18.25;;;3.17;;
32705;SDS011;19094;50.972;3.538;2023-05-29T04:56:37;16.02;;;3.00;;
32705;SDS011;19094;50.972;3.538;2023-05-29T04:59:07;18.35;;;3.42;;
32705;SDS011;19094;50.972;3.538;2023-05-29T05:01:33;14.23;;;3.45;;
32705;SDS011;19094;50.972;3.538;2023-05-29T05:03:59;12.75;;;2.90;;
32705;SDS011;19094;50.972;3.538;2023-05-29T05:06:25;13.48;;;2.63;;
32705;SDS011;19094;50.972;3.538;2023-05-29T05:08:51;14.55;;;2.80;;
32705;SDS011;19094;50.972;3.538;2023-05-29T05:11:18;18.83;;;3.53;;
32705;SDS011;19094;50.972;3.538;2023-05-29T05:13:44;19.58;;;3.22;;
32705;SDS011;19094;50.972;3.538;2023-05-29T05:16:10;19.95;;;3.75;;
32705;SDS011;19094;50.972;3.538;2023-05-29T05:18:35;17.27;;;3.03;;
32705;SDS011;19094;50.972;3.538;2023-05-29T05:21:01;15.52;;;3.83;;
32705;SDS011;19094;50.972;3.538;2023-05-29T05:23:31;16.77;;;3.97;;
32705;SDS011;19094;50.972;3.538;2023-05-29T05:25:57;25.50;;;3.90;;
32705;SDS011;19094;50.972;3.538;2023-05-29T05:28:23;18.13;;;3.78;;
32705;SDS011;19094;50.972;3.538;2023-05-29T05:30:49;16.10;;;3.58;;
32705;SDS011;19094;50.972;3.538;2023-05-29T05:33:14;22.25;;;3.35;;
32705;SDS011;19094;50.972;3.538;2023-05-29T05:35:40;24.35;;;3.95;;
32705;SDS011;19094;50.972;3.538;2023-05-29T05:38:06;19.60;;;2.60;;
32705;SDS011;19094;50.972;3.538;2023-05-29T05:40:31;14.70;;;3.03;;
32705;SDS011;19094;50.972;3.538;2023-05-29T05:42:57;12.32;;;3.00;;
32705;SDS011;19094;50.972;3.538;2023-05-29T05:45:23;19.92;;;4.47;;
32705;SDS011;19094;50.972;3.538;2023-05-29T05:47:49;17.13;;;2.92;;
32705;SDS011;19094;50.972;3.538;2023-05-29T05:50:14;16.88;;;2.97;;
32705;SDS011;19094;50.972;3.538;2023-05-29T05:52:40;16.02;;;2.70;;
32705;SDS011;19094;50.972;3.538;2023-05-29T05:55:06;19.17;;;2.95;;
32705;SDS011;19094;50.972;3.538;2023-05-29T05:57:32;12.50;;;2.88;;
32705;SDS011;19094;50.972;3.538;2023-05-29T05:59:59;12.85;;;2.90;;
32705;SDS011;19094;50.972;3.538;2023-05-29T06:02:25;18.77;;;3.67;;
32705;SDS011;19094;50.972;3.538;2023-05-29T06:04:51;14.15;;;2.75;;
32705;SDS011;19094;50.972;3.538;2023-05-29T06:07:17;17.75;;;2.33;;
32705;SDS011;19094;50.972;3.538;2023-05-29T06:09:43;12.02;;;2.55;;
32705;SDS011;19094;50.972;3.538;2023-05-29T06:12:09;13.98;;;2.80;;
32705;SDS011;19094;50.972;3.538;2023-05-29T06:14:34;16.02;;;2.60;;
32705;SDS011;19094;50.972;3.538;2023-05-29T06:17:00;14.88;;;2.88;;
32705;SDS011;19094;50.972;3.538;2023-05-29T06:19:26;12.38;;;2.72;;
32705;SDS011;19094;50.972;3.538;2023-05-29T06:21:52;10.20;;;2.38;;
32705;SDS011;19094;50.972;3.538;2023-05-29T06:24:18;12.20;;;2.83;;
32705;SDS011;19094;50.972;3.538;2023-05-29T06:26:43;14.38;;;3.10;;
32705;SDS011;19094;50.972;3.538;2023-05-29T06:29:09;16.40;;;2.80;;
32705;SDS011;19094;50.972;3.538;2023-05-29T06:31:35;13.77;;;2.88;;
32705;SDS011;19094;50.972;3.538;2023-05-29T06:34:01;10.15;;;2.83;;
32705;SDS011;19094;50.972;3.538;2023-05-29T06:36:26;14.18;;;3.10;;
32705;SDS011;19094;50.972;3.538;2023-05-29T06:38:52;13.10;;;2.95;;
32705;SDS011;19094;50.972;3.538;2023-05-29T06:41:17;29.48;;;4.47;;
32705;SDS011;19094;50.972;3.538;2023-05-29T06:43:43;16.85;;;3.25;;
32705;SDS011;19094;50.972;3.538;2023-05-29T06:46:10;15.65;;;3.42;;
32705;SDS011;19094;50.972;3.538;2023-05-29T06:48:36;14.52;;;2.90;;
32705;SDS011;19094;50.972;3.538;2023-05-29T06:51:02;23.73;;;3.92;;
32705;SDS011;19094;50.972;3.538;2023-05-29T06:53:35;15.02;;;3.67;;
32705;SDS011;19094;50.972;3.538;2023-05-29T06:56:01;22.48;;;3.50;;
32705;SDS011;19094;50.972;3.538;2023-05-29T06:58:27;26.70;;;3.53;;
32705;SDS011;19094;50.972;3.538;2023-05-29T07:00:52;19.60;;;3.58;;
32705;SDS011;19094;50.972;3.538;2023-05-29T07:03:18;15.32;;;3.42;;
32705;SDS011;19094;50.972;3.538;2023-05-29T07:05:43;14.82;;;3.10;;
32705;SDS011;19094;50.972;3.538;2023-05-29T07:08:09;14.57;;;3.03;;
32705;SDS011;19094;50.972;3.538;2023-05-29T07:10:35;14.77;;;2.97;;
32705;SDS011;19094;50.972;3.538;2023-05-29T07:13:00;18.38;;;3.10;;
32705;SDS011;19094;50.972;3.538;2023-05-29T07:15:26;15.60;;;3.15;;
32705;SDS011;19094;50.972;3.538;2023-05-29T07:17:52;23.27;;;4.22;;
32705;SDS011;19094;50.972;3.538;2023-05-29T07:20:17;15.82;;;3.13;;
32705;SDS011;19094;50.972;3.538;2023-05-29T07:22:45;17.42;;;3.13;;
32705;SDS011;19094;50.972;3.538;2023-05-29T07:25:11;13.82;;;3.00;;
32705;SDS011;19094;50.972;3.538;2023-05-29T07:27:37;12.10;;;2.70;;
32705;SDS011;19094;50.972;3.538;2023-05-29T07:30:02;15.63;;;2.65;;
32705;SDS011;19094;50.972;3.538;2023-05-29T07:32:30;15.43;;;3.13;;
32705;SDS011;19094;50.972;3.538;2023-05-29T07:34:56;12.30;;;2.75;;
32705;SDS011;19094;50.972;3.538;2023-05-29T07:37:22;16.27;;;2.90;;
32705;SDS011;19094;50.972;3.538;2023-05-29T07:39:47;18.48;;;2.72;;
32705;SDS011;19094;50.972;3.538;2023-05-29T07:42:13;14.38;;;2.95;;
32705;SDS011;19094;50.972;3.538;2023-05-29T07:44:38;15.95;;;3.15;;
32705;SDS011;19094;50.972;3.538;2023-05-29T07:47:06;8.95;;;2.20;;
32705;SDS011;19094;50.972;3.538;2023-05-29T07:49:32;18.80;;;3.92;;
32705;SDS011;19094;50.972;3.538;2023-05-29T07:51:58;9.65;;;1.65;;
32705;SDS011;19094;50.972;3.538;2023-05-29T07:54:23;13.13;;;2.63;;
32705;SDS011;19094;50.972;3.538;2023-05-29T07:56:49;20.10;;;3.08;;
32705;SDS011;19094;50.972;3.538;2023-05-29T07:59:15;19.00;;;3.58;;
32705;SDS011;19094;50.972;3.538;2023-05-29T08:01:41;19.75;;;3.20;;
32705;SDS011;19094;50.972;3.538;2023-05-29T08:04:08;14.95;;;2.85;;
32705;SDS011;19094;50.972;3.538;2023-05-29T08:06:34;10.15;;;2.10;;
32705;SDS011;19094;50.972;3.538;2023-05-29T08:09:01;16.75;;;3.38;;
32705;SDS011;19094;50.972;3.538;2023-05-29T08:11:27;15.98;;;2.90;;
32705;SDS011;19094;50.972;3.538;2023-05-29T08:13:53;13.38;;;3.40;;
32705;SDS011;19094;50.972;3.538;2023-05-29T08:16:19;16.05;;;2.88;;
32705;SDS011;19094;50.972;3.538;2023-05-29T08:18:45;22.77;;;3.67;;
32705;SDS011;19094;50.972;3.538;2023-05-29T08:21:10;17.95;;;3.53;;
32705;SDS011;19094;50.972;3.538;2023-05-29T08:23:36;12.85;;;2.92;;
32705;SDS011;19094;50.972;3.538;2023-05-29T08:26:02;14.57;;;3.30;;
32705;SDS011;19094;50.972;3.538;2023-05-29T08:28:28;17.98;;;3.13;;
32705;SDS011;19094;50.972;3.538;2023-05-29T08:30:54;15.98;;;3.05;;
32705;SDS011;19094;50.972;3.538;2023-05-29T08:33:20;16.25;;;3.15;;
32705;SDS011;19094;50.972;3.538;2023-05-29T08:35:46;16.67;;;2.83;;
32705;SDS011;19094;50.972;3.538;2023-05-29T08:38:12;13.73;;;3.22;;
32705;SDS011;19094;50.972;3.538;2023-05-29T08:40:37;12.00;;;2.75;;
32705;SDS011;19094;50.972;3.538;2023-05-29T08:43:06;16.65;;;2.80;;
32705;SDS011;19094;50.972;3.538;2023-05-29T08:45:33;19.67;;;3.40;;
32705;SDS011;19094;50.972;3.538;2023-05-29T08:48:02;15.60;;;2.92;;
32705;SDS011;19094;50.972;3.538;2023-05-29T08:50:28;20.15;;;3.15;;
32705;SDS011;19094;50.972;3.538;2023-05-29T08:52:54;15.93;;;3.28;;
32705;SDS011;19094;50.972;3.538;2023-05-29T08:55:22;14.73;;;3.28;;
32705;SDS011;19094;50.972;3.538;2023-05-29T08:57:47;18.35;;;2.63;;
32705;SDS011;19094;50.972;3.538;2023-05-29T09:00:15;11.80;;;2.78;;
32705;SDS011;19094;50.972;3.538;2023-05-29T09:02:43;11.38;;;2.53;;
32705;SDS011;19094;50.972;3.538;2023-05-29T09:05:09;15.65;;;3.22;;
32705;SDS011;19094;50.972;3.538;2023-05-29T09:07:36;12.43;;;2.97;;
32705;SDS011;19094;50.972;3.538;2023-05-29T09:10:08;17.73;;;3.65;;
32705;SDS011;19094;50.972;3.538;2023-05-29T09:12:34;19.80;;;2.92;;
32705;SDS011;19094;50.972;3.538;2023-05-29T09:15:00;18.73;;;3.53;;
32705;SDS011;19094;50.972;3.538;2023-05-29T09:17:32;5.93;;;1.92;;
32705;SDS011;19094;50.972;3.538;2023-05-29T09:19:58;21.35;;;4.38;;
32705;SDS011;19094;50.972;3.538;2023-05-29T09:22:25;13.68;;;3.03;;
32705;SDS011;19094;50.972;3.538;2023-05-29T09:24:51;15.82;;;4.35;;
32705;SDS011;19094;50.972;3.538;2023-05-29T09:27:17;13.32;;;2.75;;
32705;SDS011;19094;50.972;3.538;2023-05-29T09:29:44;15.95;;;3.63;;
32705;SDS011;19094;50.972;3.538;2023-05-29T09:32:13;14.80;;;2.70;;
32705;SDS011;19094;50.972;3.538;2023-05-29T09:34:42;18.85;;;3.40;;
32705;SDS011;19094;50.972;3.538;2023-05-29T09:37:09;14.07;;;3.38;;
32705;SDS011;19094;50.972;3.538;2023-05-29T09:39:49;23.75;;;3.58;;
32705;SDS011;19094;50.972;3.538;2023-05-29T09:42:18;18.80;;;3.80;;
32705;SDS011;19094;50.972;3.538;2023-05-29T09:44:45;17.13;;;3.85;;
32705;SDS011;19094;50.972;3.538;2023-05-29T09:47:14;20.33;;;3.67;;
32705;SDS011;19094;50.972;3.538;2023-05-29T09:49:42;19.30;;;2.83;;
32705;SDS011;19094;50.972;3.538;2023-05-29T09:52:11;17.05;;;3.55;;
32705;SDS011;19094;50.972;3.538;2023-05-29T09:54:41;23.50;;;3.92;;
32705;SDS011;19094;50.972;3.538;2023-05-29T09:57:10;20.90;;;4.00;;
32705;SDS011;19094;50.972;3.538;2023-05-29T09:59:45;14.77;;;3.92;;
32705;SDS011;19094;50.972;3.538;2023-05-29T10:04:41;17.50;;;3.67;;
32705;SDS011;19094;50.972;3.538;2023-05-29T10:09:59;20.35;;;3.80;;
32705;SDS011;19094;50.972;3.538;2023-05-29T10:12:27;19.35;;;5.03;;
32705;SDS011;19094;50.972;3.538;2023-05-29T10:14:54;26.30;;;4.85;;
32705;SDS011;19094;50.972;3.538;2023-05-29T10:17:23;16.40;;;2.90;;
32705;SDS011;19094;50.972;3.538;2023-05-29T10:20:01;17.00;;;3.08;;
32705;SDS011;19094;50.972;3.538;2023-05-29T10:22:30;16.17;;;3.55;;
32705;SDS011;19094;50.972;3.538;2023-05-29T10:24:57;25.08;;;4.32;;
32705;SDS011;19094;50.972;3.538;2023-05-29T10:27:24;15.60;;;3.33;;
32705;SDS011;19094;50.972;3.538;2023-05-29T10:30:02;13.68;;;2.40;;
32705;SDS011;19094;50.972;3.538;2023-05-29T10:35:45;25.50;;;3.63;;
32705;SDS011;19094;50.972;3.538;2023-05-29T10:38:16;14.10;;;2.80;;
32705;SDS011;19094;50.972;3.538;2023-05-29T10:40:43;25.65;;;4.35;;
32705;SDS011;19094;50.972;3.538;2023-05-29T10:43:29;15.20;;;3.38;;
32705;SDS011;19094;50.972;3.538;2023-05-29T10:45:56;22.35;;;4.00;;
32705;SDS011;19094;50.972;3.538;2023-05-29T10:50:53;16.55;;;3.42;;
32705;SDS011;19094;50.972;3.538;2023-05-29T10:53:23;10.90;;;3.10;;
32705;SDS011;19094;50.972;3.538;2023-05-29T10:55:51;12.30;;;2.72;;
32705;SDS011;19094;50.972;3.538;2023-05-29T10:58:18;12.25;;;3.30;;
32705;SDS011;19094;50.972;3.538;2023-05-29T11:00:49;15.00;;;3.63;;
32705;SDS011;19094;50.972;3.538;2023-05-29T11:03:17;22.35;;;3.33;;
32705;SDS011;19094;50.972;3.538;2023-05-29T11:05:55;11.10;;;2.78;;
32705;SDS011;19094;50.972;3.538;2023-05-29T11:11:11;14.13;;;2.90;;
32705;SDS011;19094;50.972;3.538;2023-05-29T11:13:37;12.27;;;3.08;;
32705;SDS011;19094;50.972;3.538;2023-05-29T11:16:19;15.73;;;3.40;;
32705;SDS011;19094;50.972;3.538;2023-05-29T11:18:54;15.70;;;3.30;;
32705;SDS011;19094;50.972;3.538;2023-05-29T11:21:34;11.80;;;2.45;;
32705;SDS011;19094;50.972;3.538;2023-05-29T11:24:03;13.77;;;2.63;;
32705;SDS011;19094;50.972;3.538;2023-05-29T11:26:32;21.75;;;4.75;;
32705;SDS011;19094;50.972;3.538;2023-05-29T11:28:59;17.17;;;4.22;;
32705;SDS011;19094;50.972;3.538;2023-05-29T11:31:26;15.10;;;3.78;;
32705;SDS011;19094;50.972;3.538;2023-05-29T11:33:58;13.02;;;3.58;;
32705;SDS011;19094;50.972;3.538;2023-05-29T11:36:25;11.85;;;3.03;;
32705;SDS011;19094;50.972;3.538;2023-05-29T11:38:52;14.25;;;3.90;;
32705;SDS011;19094;50.972;3.538;2023-05-29T11:41:18;14.30;;;3.22;;
32705;SDS011;19094;50.972;3.538;2023-05-29T11:43:55;16.33;;;3.28;;
32705;SDS011;19094;50.972;3.538;2023-05-29T11:46:22;12.40;;;3.50;;
32705;SDS011;19094;50.972;3.538;2023-05-29T11:48:51;17.15;;;3.50;;
32705;SDS011;19094;50.972;3.538;2023-05-29T11:51:17;21.02;;;4.10;;
32705;SDS011;19094;50.972;3.538;2023-05-29T11:53:43;10.27;;;2.33;;
32705;SDS011;19094;50.972;3.538;2023-05-29T11:56:11;12.63;;;2.83;;
32705;SDS011;19094;50.972;3.538;2023-05-29T11:58:40;14.57;;;3.65;;
32705;SDS011;19094;50.972;3.538;2023-05-29T12:01:06;13.60;;;2.78;;
32705;SDS011;19094;50.972;3.538;2023-05-29T12:03:39;14.63;;;3.58;;
32705;SDS011;19094;50.972;3.538;2023-05-29T12:06:06;12.37;;;3.63;;
32705;SDS011;19094;50.972;3.538;2023-05-29T12:08:33;10.85;;;2.58;;
32705;SDS011;19094;50.972;3.538;2023-05-29T12:10:59;10.48;;;3.20;;
32705;SDS011;19094;50.972;3.538;2023-05-29T12:13:25;9.32;;;2.55;;
32705;SDS011;19094;50.972;3.538;2023-05-29T12:15:52;19.40;;;5.40;;
32705;SDS011;19094;50.972;3.538;2023-05-29T12:18:19;16.50;;;4.80;;
32705;SDS011;19094;50.972;3.538;2023-05-29T12:20:45;12.88;;;3.40;;
32705;SDS011;19094;50.972;3.538;2023-05-29T12:23:11;16.30;;;4.55;;
32705;SDS011;19094;50.972;3.538;2023-05-29T12:25:37;13.85;;;3.85;;
32705;SDS011;19094;50.972;3.538;2023-05-29T12:28:03;14.45;;;3.45;;
32705;SDS011;19094;50.972;3.538;2023-05-29T12:30:29;17.40;;;3.90;;
32705;SDS011;19094;50.972;3.538;2023-05-29T12:32:55;18.27;;;3.95;;
32705;SDS011;19094;50.972;3.538;2023-05-29T12:35:22;10.13;;;2.97;;
32705;SDS011;19094;50.972;3.538;2023-05-29T12:37:56;16.05;;;3.72;;
32705;SDS011;19094;50.972;3.538;2023-05-29T12:40:25;13.38;;;3.80;;
32705;SDS011;19094;50.972;3.538;2023-05-29T12:42:59;16.25;;;3.97;;
32705;SDS011;19094;50.972;3.538;2023-05-29T12:45:28;20.85;;;4.50;;
32705;SDS011;19094;50.972;3.538;2023-05-29T12:48:02;10.95;;;3.58;;
32705;SDS011;19094;50.972;3.538;2023-05-29T12:50:35;8.30;;;3.05;;
32705;SDS011;19094;50.972;3.538;2023-05-29T12:53:08;11.93;;;3.65;;
32705;SDS011;19094;50.972;3.538;2023-05-29T12:55:39;21.42;;;5.32;;
32705;SDS011;19094;50.972;3.538;2023-05-29T12:58:06;15.40;;;4.60;;
32705;SDS011;19094;50.972;3.538;2023-05-29T13:00:37;9.90;;;3.17;;
32705;SDS011;19094;50.972;3.538;2023-05-29T13:03:04;16.98;;;7.13;;
32705;SDS011;19094;50.972;3.538;2023-05-29T13:05:33;15.20;;;4.63;;
32705;SDS011;19094;50.972;3.538;2023-05-29T13:07:59;18.60;;;4.30;;
32705;SDS011;19094;50.972;3.538;2023-05-29T13:10:26;17.67;;;4.60;;
32705;SDS011;19094;50.972;3.538;2023-05-29T13:12:53;14.60;;;4.30;;
32705;SDS011;19094;50.972;3.538;2023-05-29T13:15:22;9.77;;;3.55;;
32705;SDS011;19094;50.972;3.538;2023-05-29T13:17:48;13.73;;;3.17;;
32705;SDS011;19094;50.972;3.538;2023-05-29T13:20:15;15.43;;;4.40;;
32705;SDS011;19094;50.972;3.538;2023-05-29T13:22:42;11.70;;;3.60;;
32705;SDS011;19094;50.972;3.538;2023-05-29T13:25:09;14.05;;;3.42;;
32705;SDS011;19094;50.972;3.538;2023-05-29T13:27:37;9.18;;;3.05;;
32705;SDS011;19094;50.972;3.538;2023-05-29T13:30:06;18.80;;;5.75;;
32705;SDS011;19094;50.972;3.538;2023-05-29T13:32:33;19.13;;;3.75;;
32705;SDS011;19094;50.972;3.538;2023-05-29T13:34:59;10.02;;;3.10;;
32705;SDS011;19094;50.972;3.538;2023-05-29T13:37:25;12.15;;;2.83;;
32705;SDS011;19094;50.972;3.538;2023-05-29T13:39:52;13.80;;;2.90;;
32705;SDS011;19094;50.972;3.538;2023-05-29T13:42:19;10.55;;;4.45;;
32705;SDS011;19094;50.972;3.538;2023-05-29T13:44:45;10.93;;;4.00;;
32705;SDS011;19094;50.972;3.538;2023-05-29T13:47:11;21.05;;;5.85;;
32705;SDS011;19094;50.972;3.538;2023-05-29T13:49:37;22.90;;;7.93;;
32705;SDS011;19094;50.972;3.538;2023-05-29T13:52:03;15.45;;;4.05;;
32705;SDS011;19094;50.972;3.538;2023-05-29T13:54:29;14.30;;;3.00;;
32705;SDS011;19094;50.972;3.538;2023-05-29T13:56:56;10.48;;;3.10;;
32705;SDS011;19094;50.972;3.538;2023-05-29T13:59:23;11.23;;;2.50;;
32705;SDS011;19094;50.972;3.538;2023-05-29T14:01:49;9.27;;;2.83;;
32705;SDS011;19094;50.972;3.538;2023-05-29T14:04:15;11.25;;;2.53;;
32705;SDS011;19094;50.972;3.538;2023-05-29T14:06:41;13.75;;;2.85;;
32705;SDS011;19094;50.972;3.538;2023-05-29T14:09:06;10.93;;;3.00;;
32705;SDS011;19094;50.972;3.538;2023-05-29T14:11:35;10.88;;;2.80;;
32705;SDS011;19094;50.972;3.538;2023-05-29T14:14:04;12.55;;;2.67;;
32705;SDS011;19094;50.972;3.538;2023-05-29T14:16:31;7.00;;;2.53;;
32705;SDS011;19094;50.972;3.538;2023-05-29T14:18:57;12.27;;;2.90;;
32705;SDS011;19094;50.972;3.538;2023-05-29T14:21:23;11.73;;;2.95;;
32705;SDS011;19094;50.972;3.538;2023-05-29T14:23:49;10.52;;;2.70;;
32705;SDS011;19094;50.972;3.538;2023-05-29T14:26:15;14.55;;;2.70;;
32705;SDS011;19094;50.972;3.538;2023-05-29T14:28:40;8.30;;;2.80;;
32705;SDS011;19094;50.972;3.538;2023-05-29T14:31:06;13.05;;;2.72;;
32705;SDS011;19094;50.972;3.538;2023-05-29T14:33:32;9.43;;;3.08;;
32705;SDS011;19094;50.972;3.538;2023-05-29T14:35:58;10.90;;;2.53;;
32705;SDS011;19094;50.972;3.538;2023-05-29T14:38:24;9.60;;;2.65;;
32705;SDS011;19094;50.972;3.538;2023-05-29T14:40:50;14.00;;;2.38;;
32705;SDS011;19094;50.972;3.538;2023-05-29T14:43:16;7.95;;;2.50;;
32705;SDS011;19094;50.972;3.538;2023-05-29T14:45:42;14.15;;;2.88;;
32705;SDS011;19094;50.972;3.538;2023-05-29T14:48:07;8.98;;;2.53;;
32705;SDS011;19094;50.972;3.538;2023-05-29T14:50:33;10.60;;;3.25;;
32705;SDS011;19094;50.972;3.538;2023-05-29T14:52:59;13.65;;;2.97;;